sensor_id;sensor_type;location;lat;lon;timestamp;P1;durP1;ratioP1;P2;durP2;ratioP2
75098;SDS011;63685;47.374;8.498;2022-10-26T00:02:08;21.27;;;11.88;;
75098;SDS011;63685;47.374;8.498;2022-10-26T00:04:34;22.20;;;11.93;;
75098;SDS011;63685;47.374;8.498;2022-10-26T00:06:59;20.27;;;11.10;;
75098;SDS011;63685;47.374;8.498;2022-10-26T00:09:25;21.23;;;11.45;;
75098;SDS011;63685;47.374;8.498;2022-10-26T00:11:51;21.23;;;11.70;;
75098;SDS011;63685;47.374;8.498;2022-10-26T00:14:17;22.85;;;11.43;;
75098;SDS011;63685;47.374;8.498;2022-10-26T00:16:42;23.27;;;10.85;;
75098;SDS011;63685;47.374;8.498;2022-10-26T00:19:08;20.45;;;10.30;;
75098;SDS011;63685;47.374;8.498;2022-10-26T00:21:34;20.30;;;10.35;;
75098;SDS011;63685;47.374;8.498;2022-10-26T00:23:59;17.27;;;10.38;;
75098;SDS011;63685;47.374;8.498;2022-10-26T00:26:25;19.45;;;10.88;;
75098;SDS011;63685;47.374;8.498;2022-10-26T00:28:52;24.30;;;10.20;;
75098;SDS011;63685;47.374;8.498;2022-10-26T00:31:18;18.85;;;9.60;;
75098;SDS011;63685;47.374;8.498;2022-10-26T00:33:44;23.63;;;10.10;;
75098;SDS011;63685;47.374;8.498;2022-10-26T00:36:10;17.90;;;10.70;;
75098;SDS011;63685;47.374;8.498;2022-10-26T00:38:38;17.80;;;9.18;;
75098;SDS011;63685;47.374;8.498;2022-10-26T00:41:12;19.77;;;10.25;;
75098;SDS011;63685;47.374;8.498;2022-10-26T00:43:40;20.40;;;10.45;;
75098;SDS011;63685;47.374;8.498;2022-10-26T00:46:10;19.58;;;10.15;;
75098;SDS011;63685;47.374;8.498;2022-10-26T00:48:46;18.48;;;9.88;;
75098;SDS011;63685;47.374;8.498;2022-10-26T00:51:36;19.05;;;9.68;;
75098;SDS011;63685;47.374;8.498;2022-10-26T00:54:04;19.48;;;9.60;;
75098;SDS011;63685;47.374;8.498;2022-10-26T00:56:32;18.50;;;9.23;;
75098;SDS011;63685;47.374;8.498;2022-10-26T00:59:01;20.42;;;10.05;;
75098;SDS011;63685;47.374;8.498;2022-10-26T01:01:29;14.52;;;8.60;;
75098;SDS011;63685;47.374;8.498;2022-10-26T01:03:57;18.30;;;9.13;;
75098;SDS011;63685;47.374;8.498;2022-10-26T01:06:24;16.67;;;9.57;;
75098;SDS011;63685;47.374;8.498;2022-10-26T01:08:49;19.77;;;9.13;;
75098;SDS011;63685;47.374;8.498;2022-10-26T01:11:15;17.70;;;9.52;;
75098;SDS011;63685;47.374;8.498;2022-10-26T01:13:41;14.23;;;8.68;;
75098;SDS011;63685;47.374;8.498;2022-10-26T01:16:19;15.52;;;8.48;;
75098;SDS011;63685;47.374;8.498;2022-10-26T01:31:54;17.13;;;8.25;;
75098;SDS011;63685;47.374;8.498;2022-10-26T01:34:24;18.48;;;8.00;;
75098;SDS011;63685;47.374;8.498;2022-10-26T01:36:58;17.75;;;8.70;;
75098;SDS011;63685;47.374;8.498;2022-10-26T01:39:36;19.63;;;8.23;;
75098;SDS011;63685;47.374;8.498;2022-10-26T01:42:06;21.42;;;8.25;;
75098;SDS011;63685;47.374;8.498;2022-10-26T01:44:35;12.48;;;7.43;;
75098;SDS011;63685;47.374;8.498;2022-10-26T01:47:15;15.85;;;8.48;;
75098;SDS011;63685;47.374;8.498;2022-10-26T01:49:45;13.88;;;7.55;;
75098;SDS011;63685;47.374;8.498;2022-10-26T01:52:16;15.90;;;7.50;;
75098;SDS011;63685;47.374;8.498;2022-10-26T01:54:42;26.25;;;7.80;;
75098;SDS011;63685;47.374;8.498;2022-10-26T01:57:08;16.15;;;7.45;;
75098;SDS011;63685;47.374;8.498;2022-10-26T02:02:37;14.27;;;6.70;;
75098;SDS011;63685;47.374;8.498;2022-10-26T02:05:34;12.50;;;7.25;;
75098;SDS011;63685;47.374;8.498;2022-10-26T02:13:35;14.30;;;6.93;;
75098;SDS011;63685;47.374;8.498;2022-10-26T02:18:56;19.15;;;7.50;;
75098;SDS011;63685;47.374;8.498;2022-10-26T02:21:29;13.68;;;7.30;;
75098;SDS011;63685;47.374;8.498;2022-10-26T02:24:00;16.60;;;7.05;;
75098;SDS011;63685;47.374;8.498;2022-10-26T02:26:28;16.52;;;7.45;;
75098;SDS011;63685;47.374;8.498;2022-10-26T02:28:57;19.65;;;7.28;;
75098;SDS011;63685;47.374;8.498;2022-10-26T02:31:26;16.08;;;7.13;;
75098;SDS011;63685;47.374;8.498;2022-10-26T02:33:52;13.25;;;7.03;;
75098;SDS011;63685;47.374;8.498;2022-10-26T02:36:26;12.63;;;7.00;;
75098;SDS011;63685;47.374;8.498;2022-10-26T02:38:57;12.38;;;6.45;;
75098;SDS011;63685;47.374;8.498;2022-10-26T02:41:24;12.88;;;6.72;;
75098;SDS011;63685;47.374;8.498;2022-10-26T02:43:53;11.77;;;6.57;;
75098;SDS011;63685;47.374;8.498;2022-10-26T02:46:39;12.95;;;7.13;;
75098;SDS011;63685;47.374;8.498;2022-10-26T02:49:05;14.43;;;7.15;;
75098;SDS011;63685;47.374;8.498;2022-10-26T02:51:37;11.05;;;6.80;;
75098;SDS011;63685;47.374;8.498;2022-10-26T02:59:24;12.82;;;5.97;;
75098;SDS011;63685;47.374;8.498;2022-10-26T03:01:54;14.15;;;6.15;;
75098;SDS011;63685;47.374;8.498;2022-10-26T03:04:26;12.52;;;5.97;;
75098;SDS011;63685;47.374;8.498;2022-10-26T03:06:53;12.82;;;6.32;;
75098;SDS011;63685;47.374;8.498;2022-10-26T03:09:19;14.50;;;6.63;;
75098;SDS011;63685;47.374;8.498;2022-10-26T03:11:45;13.07;;;6.50;;
75098;SDS011;63685;47.374;8.498;2022-10-26T03:14:10;12.10;;;5.78;;
75098;SDS011;63685;47.374;8.498;2022-10-26T03:16:36;15.32;;;6.95;;
75098;SDS011;63685;47.374;8.498;2022-10-26T03:19:02;12.57;;;6.45;;
75098;SDS011;63685;47.374;8.498;2022-10-26T03:21:27;11.63;;;5.78;;
75098;SDS011;63685;47.374;8.498;2022-10-26T03:23:53;12.55;;;6.22;;
75098;SDS011;63685;47.374;8.498;2022-10-26T03:26:18;13.40;;;6.18;;
75098;SDS011;63685;47.374;8.498;2022-10-26T03:28:44;12.43;;;6.28;;
75098;SDS011;63685;47.374;8.498;2022-10-26T03:31:10;13.80;;;6.03;;
75098;SDS011;63685;47.374;8.498;2022-10-26T03:33:35;13.63;;;5.93;;
75098;SDS011;63685;47.374;8.498;2022-10-26T03:36:01;14.30;;;6.43;;
75098;SDS011;63685;47.374;8.498;2022-10-26T03:38:27;13.73;;;5.88;;
75098;SDS011;63685;47.374;8.498;2022-10-26T03:40:52;10.70;;;5.72;;
75098;SDS011;63685;47.374;8.498;2022-10-26T03:43:18;13.18;;;6.40;;
75098;SDS011;63685;47.374;8.498;2022-10-26T03:45:43;12.88;;;6.22;;
75098;SDS011;63685;47.374;8.498;2022-10-26T03:48:09;12.57;;;6.22;;
75098;SDS011;63685;47.374;8.498;2022-10-26T03:50:34;13.95;;;6.22;;
75098;SDS011;63685;47.374;8.498;2022-10-26T03:53:00;11.93;;;5.78;;
75098;SDS011;63685;47.374;8.498;2022-10-26T03:55:25;11.18;;;5.72;;
75098;SDS011;63685;47.374;8.498;2022-10-26T03:57:51;12.38;;;5.70;;
75098;SDS011;63685;47.374;8.498;2022-10-26T04:00:16;11.80;;;5.60;;
75098;SDS011;63685;47.374;8.498;2022-10-26T04:02:43;11.50;;;5.25;;
75098;SDS011;63685;47.374;8.498;2022-10-26T04:05:13;11.57;;;5.63;;
75098;SDS011;63685;47.374;8.498;2022-10-26T04:07:40;9.85;;;5.43;;
75098;SDS011;63685;47.374;8.498;2022-10-26T04:10:06;10.48;;;5.47;;
75098;SDS011;63685;47.374;8.498;2022-10-26T04:12:35;13.95;;;6.88;;
75098;SDS011;63685;47.374;8.498;2022-10-26T04:15:01;9.38;;;5.43;;
75098;SDS011;63685;47.374;8.498;2022-10-26T04:17:27;12.55;;;5.93;;
75098;SDS011;63685;47.374;8.498;2022-10-26T04:19:53;12.25;;;5.75;;
75098;SDS011;63685;47.374;8.498;2022-10-26T04:22:18;10.82;;;5.90;;
75098;SDS011;63685;47.374;8.498;2022-10-26T04:24:44;9.90;;;5.35;;
75098;SDS011;63685;47.374;8.498;2022-10-26T04:27:09;13.90;;;5.40;;
75098;SDS011;63685;47.374;8.498;2022-10-26T04:29:35;17.52;;;5.68;;
75098;SDS011;63685;47.374;8.498;2022-10-26T04:32:01;13.68;;;5.90;;
75098;SDS011;63685;47.374;8.498;2022-10-26T04:34:26;10.73;;;5.28;;
75098;SDS011;63685;47.374;8.498;2022-10-26T04:36:52;12.57;;;5.80;;
75098;SDS011;63685;47.374;8.498;2022-10-26T04:39:18;11.32;;;5.38;;
75098;SDS011;63685;47.374;8.498;2022-10-26T04:41:44;7.72;;;4.95;;
75098;SDS011;63685;47.374;8.498;2022-10-26T04:44:09;10.50;;;5.22;;
75098;SDS011;63685;47.374;8.498;2022-10-26T04:46:35;9.68;;;5.07;;
75098;SDS011;63685;47.374;8.498;2022-10-26T04:49:00;10.63;;;5.28;;
75098;SDS011;63685;47.374;8.498;2022-10-26T04:51:26;13.35;;;5.60;;
75098;SDS011;63685;47.374;8.498;2022-10-26T04:53:52;10.45;;;5.22;;
75098;SDS011;63685;47.374;8.498;2022-10-26T04:56:18;10.32;;;5.07;;
75098;SDS011;63685;47.374;8.498;2022-10-26T04:58:44;11.00;;;4.95;;
75098;SDS011;63685;47.374;8.498;2022-10-26T05:01:09;17.52;;;5.28;;
75098;SDS011;63685;47.374;8.498;2022-10-26T05:03:35;10.27;;;5.80;;
75098;SDS011;63685;47.374;8.498;2022-10-26T05:06:01;10.68;;;4.63;;
75098;SDS011;63685;47.374;8.498;2022-10-26T05:08:26;12.10;;;5.55;;
75098;SDS011;63685;47.374;8.498;2022-10-26T05:10:53;13.85;;;5.45;;
75098;SDS011;63685;47.374;8.498;2022-10-26T05:13:19;11.02;;;5.32;;
75098;SDS011;63685;47.374;8.498;2022-10-26T05:15:45;14.43;;;4.97;;
75098;SDS011;63685;47.374;8.498;2022-10-26T05:18:10;16.38;;;5.40;;
75098;SDS011;63685;47.374;8.498;2022-10-26T05:20:36;18.40;;;5.75;;
75098;SDS011;63685;47.374;8.498;2022-10-26T05:23:03;19.92;;;6.55;;
75098;SDS011;63685;47.374;8.498;2022-10-26T05:25:30;16.92;;;6.00;;
75098;SDS011;63685;47.374;8.498;2022-10-26T05:28:02;35.22;;;7.82;;
75098;SDS011;63685;47.374;8.498;2022-10-26T05:30:29;15.77;;;6.07;;
75098;SDS011;63685;47.374;8.498;2022-10-26T05:32:59;14.07;;;4.90;;
75098;SDS011;63685;47.374;8.498;2022-10-26T05:35:28;6.15;;;3.05;;
75098;SDS011;63685;47.374;8.498;2022-10-26T05:37:55;5.82;;;2.65;;
75098;SDS011;63685;47.374;8.498;2022-10-26T05:40:21;4.15;;;2.47;;
75098;SDS011;63685;47.374;8.498;2022-10-26T05:42:47;3.92;;;2.03;;
75098;SDS011;63685;47.374;8.498;2022-10-26T05:45:12;6.28;;;2.72;;
75098;SDS011;63685;47.374;8.498;2022-10-26T05:47:39;9.15;;;2.95;;
75098;SDS011;63685;47.374;8.498;2022-10-26T05:50:05;25.83;;;7.18;;
75098;SDS011;63685;47.374;8.498;2022-10-26T05:52:41;19.08;;;6.10;;
75098;SDS011;63685;47.374;8.498;2022-10-26T05:55:12;12.88;;;4.53;;
75098;SDS011;63685;47.374;8.498;2022-10-26T05:57:39;12.82;;;5.05;;
75098;SDS011;63685;47.374;8.498;2022-10-26T06:00:16;46.80;;;15.05;;
75098;SDS011;63685;47.374;8.498;2022-10-26T06:05:25;65.72;;;22.50;;
75098;SDS011;63685;47.374;8.498;2022-10-26T06:07:52;51.45;;;19.85;;
75098;SDS011;63685;47.374;8.498;2022-10-26T06:10:18;73.03;;;21.92;;
75098;SDS011;63685;47.374;8.498;2022-10-26T06:12:44;46.13;;;15.52;;
75098;SDS011;63685;47.374;8.498;2022-10-26T06:15:14;44.38;;;12.98;;
75098;SDS011;63685;47.374;8.498;2022-10-26T06:17:48;38.63;;;12.35;;
75098;SDS011;63685;47.374;8.498;2022-10-26T06:25:50;37.70;;;13.05;;
75098;SDS011;63685;47.374;8.498;2022-10-26T06:31:07;43.00;;;12.63;;
75098;SDS011;63685;47.374;8.498;2022-10-26T06:33:33;35.10;;;11.70;;
75098;SDS011;63685;47.374;8.498;2022-10-26T06:38:30;38.22;;;12.35;;
75098;SDS011;63685;47.374;8.498;2022-10-26T06:40:59;35.70;;;12.55;;
75098;SDS011;63685;47.374;8.498;2022-10-26T06:43:30;32.80;;;11.90;;
75098;SDS011;63685;47.374;8.498;2022-10-26T06:48:29;31.83;;;11.05;;
75098;SDS011;63685;47.374;8.498;2022-10-26T06:51:06;30.92;;;11.55;;
75098;SDS011;63685;47.374;8.498;2022-10-26T06:53:41;33.47;;;11.05;;
75098;SDS011;63685;47.374;8.498;2022-10-26T06:56:15;28.70;;;10.82;;
75098;SDS011;63685;47.374;8.498;2022-10-26T06:58:41;32.78;;;10.90;;
75098;SDS011;63685;47.374;8.498;2022-10-26T07:01:09;25.35;;;10.48;;
75098;SDS011;63685;47.374;8.498;2022-10-26T07:03:36;27.88;;;10.55;;
75098;SDS011;63685;47.374;8.498;2022-10-26T07:06:02;29.50;;;9.80;;
75098;SDS011;63685;47.374;8.498;2022-10-26T07:08:28;26.60;;;9.98;;
75098;SDS011;63685;47.374;8.498;2022-10-26T07:10:55;28.05;;;10.35;;
75098;SDS011;63685;47.374;8.498;2022-10-26T07:13:21;24.63;;;10.05;;
75098;SDS011;63685;47.374;8.498;2022-10-26T07:15:47;27.02;;;11.00;;
75098;SDS011;63685;47.374;8.498;2022-10-26T07:18:12;30.73;;;10.27;;
75098;SDS011;63685;47.374;8.498;2022-10-26T07:20:39;30.15;;;11.80;;
75098;SDS011;63685;47.374;8.498;2022-10-26T07:23:06;27.88;;;10.13;;
75098;SDS011;63685;47.374;8.498;2022-10-26T07:25:34;24.38;;;9.70;;
75098;SDS011;63685;47.374;8.498;2022-10-26T07:28:03;25.17;;;9.55;;
75098;SDS011;63685;47.374;8.498;2022-10-26T07:30:29;28.95;;;10.95;;
75098;SDS011;63685;47.374;8.498;2022-10-26T07:33:01;33.55;;;11.13;;
75098;SDS011;63685;47.374;8.498;2022-10-26T07:35:28;24.98;;;9.50;;
75098;SDS011;63685;47.374;8.498;2022-10-26T07:37:57;25.63;;;9.15;;
75098;SDS011;63685;47.374;8.498;2022-10-26T07:40:23;22.27;;;9.13;;
75098;SDS011;63685;47.374;8.498;2022-10-26T07:42:49;25.63;;;8.70;;
75098;SDS011;63685;47.374;8.498;2022-10-26T07:45:15;21.95;;;7.38;;
75098;SDS011;63685;47.374;8.498;2022-10-26T07:47:40;20.48;;;7.47;;
75098;SDS011;63685;47.374;8.498;2022-10-26T07:50:06;19.67;;;7.38;;
75098;SDS011;63685;47.374;8.498;2022-10-26T07:52:32;19.20;;;7.70;;
75098;SDS011;63685;47.374;8.498;2022-10-26T07:54:59;17.67;;;6.50;;
75098;SDS011;63685;47.374;8.498;2022-10-26T07:57:25;17.42;;;7.05;;
75098;SDS011;63685;47.374;8.498;2022-10-26T07:59:51;17.70;;;7.45;;
75098;SDS011;63685;47.374;8.498;2022-10-26T08:02:16;18.08;;;7.50;;
75098;SDS011;63685;47.374;8.498;2022-10-26T08:04:43;20.70;;;7.55;;
75098;SDS011;63685;47.374;8.498;2022-10-26T08:07:08;15.63;;;6.68;;
75098;SDS011;63685;47.374;8.498;2022-10-26T08:09:34;18.13;;;6.60;;
75098;SDS011;63685;47.374;8.498;2022-10-26T08:11:59;15.30;;;6.72;;
75098;SDS011;63685;47.374;8.498;2022-10-26T08:14:25;18.90;;;7.43;;
75098;SDS011;63685;47.374;8.498;2022-10-26T08:16:50;18.15;;;6.70;;
75098;SDS011;63685;47.374;8.498;2022-10-26T08:19:16;14.48;;;6.50;;
75098;SDS011;63685;47.374;8.498;2022-10-26T08:21:42;17.20;;;7.10;;
75098;SDS011;63685;47.374;8.498;2022-10-26T08:24:08;15.82;;;6.30;;
75098;SDS011;63685;47.374;8.498;2022-10-26T08:26:33;20.60;;;7.15;;
75098;SDS011;63685;47.374;8.498;2022-10-26T08:28:59;18.40;;;6.70;;
75098;SDS011;63685;47.374;8.498;2022-10-26T08:31:25;17.60;;;6.88;;
75098;SDS011;63685;47.374;8.498;2022-10-26T08:33:50;16.55;;;6.90;;
75098;SDS011;63685;47.374;8.498;2022-10-26T08:36:16;16.13;;;6.80;;
75098;SDS011;63685;47.374;8.498;2022-10-26T08:38:47;15.48;;;6.90;;
75098;SDS011;63685;47.374;8.498;2022-10-26T08:41:13;13.70;;;5.95;;
75098;SDS011;63685;47.374;8.498;2022-10-26T08:46:15;18.35;;;6.78;;
75098;SDS011;63685;47.374;8.498;2022-10-26T08:49:08;14.25;;;6.40;;
75098;SDS011;63685;47.374;8.498;2022-10-26T08:51:48;12.43;;;5.85;;
75098;SDS011;63685;47.374;8.498;2022-10-26T08:56:57;14.50;;;5.95;;
75098;SDS011;63685;47.374;8.498;2022-10-26T08:59:42;14.30;;;5.75;;
75098;SDS011;63685;47.374;8.498;2022-10-26T09:02:14;15.50;;;6.40;;
75098;SDS011;63685;47.374;8.498;2022-10-26T09:04:41;13.93;;;6.28;;
75098;SDS011;63685;47.374;8.498;2022-10-26T09:12:38;12.80;;;5.60;;
75098;SDS011;63685;47.374;8.498;2022-10-26T09:21:16;10.82;;;5.35;;
75098;SDS011;63685;47.374;8.498;2022-10-26T09:26:34;11.95;;;5.32;;
75098;SDS011;63685;47.374;8.498;2022-10-26T09:29:04;10.57;;;5.28;;
75098;SDS011;63685;47.374;8.498;2022-10-26T09:31:36;11.38;;;5.35;;
75098;SDS011;63685;47.374;8.498;2022-10-26T09:34:04;15.68;;;5.65;;
75098;SDS011;63685;47.374;8.498;2022-10-26T09:36:32;11.38;;;5.38;;
75098;SDS011;63685;47.374;8.498;2022-10-26T09:41:48;13.63;;;5.90;;
75098;SDS011;63685;47.374;8.498;2022-10-26T09:44:30;15.38;;;5.70;;
75098;SDS011;63685;47.374;8.498;2022-10-26T09:47:10;13.77;;;5.82;;
75098;SDS011;63685;47.374;8.498;2022-10-26T09:50:17;13.20;;;5.43;;
75098;SDS011;63685;47.374;8.498;2022-10-26T09:52:53;14.38;;;5.53;;
75098;SDS011;63685;47.374;8.498;2022-10-26T09:55:18;13.30;;;5.20;;
75098;SDS011;63685;47.374;8.498;2022-10-26T09:57:47;11.10;;;6.07;;
75098;SDS011;63685;47.374;8.498;2022-10-26T10:00:17;12.20;;;5.95;;
75098;SDS011;63685;47.374;8.498;2022-10-26T10:02:45;9.95;;;5.20;;
75098;SDS011;63685;47.374;8.498;2022-10-26T10:05:24;11.35;;;5.75;;
75098;SDS011;63685;47.374;8.498;2022-10-26T10:08:17;10.85;;;4.82;;
75098;SDS011;63685;47.374;8.498;2022-10-26T10:13:40;10.02;;;4.78;;
75098;SDS011;63685;47.374;8.498;2022-10-26T10:16:11;11.48;;;5.45;;
75098;SDS011;63685;47.374;8.498;2022-10-26T10:18:43;10.13;;;4.63;;
75098;SDS011;63685;47.374;8.498;2022-10-26T10:21:36;10.38;;;4.53;;
75098;SDS011;63685;47.374;8.498;2022-10-26T10:24:25;10.15;;;4.93;;
75098;SDS011;63685;47.374;8.498;2022-10-26T10:27:03;13.15;;;4.95;;
75098;SDS011;63685;47.374;8.498;2022-10-26T10:29:54;10.25;;;5.03;;
75098;SDS011;63685;47.374;8.498;2022-10-26T10:32:22;9.45;;;4.90;;
75098;SDS011;63685;47.374;8.498;2022-10-26T10:34:54;10.57;;;4.97;;
75098;SDS011;63685;47.374;8.498;2022-10-26T10:37:31;10.38;;;4.78;;
75098;SDS011;63685;47.374;8.498;2022-10-26T10:40:13;10.50;;;4.65;;
75098;SDS011;63685;47.374;8.498;2022-10-26T10:42:48;9.80;;;5.13;;
75098;SDS011;63685;47.374;8.498;2022-10-26T10:48:00;10.82;;;5.20;;
75098;SDS011;63685;47.374;8.498;2022-10-26T10:50:28;7.80;;;4.30;;
75098;SDS011;63685;47.374;8.498;2022-10-26T11:10:35;7.80;;;4.30;;
75098;SDS011;63685;47.374;8.498;2022-10-26T11:13:09;8.65;;;4.03;;
75098;SDS011;63685;47.374;8.498;2022-10-26T11:15:43;7.70;;;4.05;;
75098;SDS011;63685;47.374;8.498;2022-10-26T11:18:23;10.63;;;4.05;;
75098;SDS011;63685;47.374;8.498;2022-10-26T11:21:01;8.27;;;3.83;;
75098;SDS011;63685;47.374;8.498;2022-10-26T11:23:40;8.77;;;4.43;;
75098;SDS011;63685;47.374;8.498;2022-10-26T11:26:14;9.63;;;4.60;;
75098;SDS011;63685;47.374;8.498;2022-10-26T11:28:48;8.25;;;3.80;;
75098;SDS011;63685;47.374;8.498;2022-10-26T11:31:20;6.32;;;3.38;;
75098;SDS011;63685;47.374;8.498;2022-10-26T11:34:00;8.88;;;3.60;;
75098;SDS011;63685;47.374;8.498;2022-10-26T11:36:45;6.50;;;3.58;;
75098;SDS011;63685;47.374;8.498;2022-10-26T11:42:32;8.45;;;3.72;;
75098;SDS011;63685;47.374;8.498;2022-10-26T11:45:13;7.88;;;4.05;;
75098;SDS011;63685;47.374;8.498;2022-10-26T11:47:50;7.38;;;3.63;;
75098;SDS011;63685;47.374;8.498;2022-10-26T11:53:11;6.60;;;3.90;;
75098;SDS011;63685;47.374;8.498;2022-10-26T11:55:40;6.15;;;3.20;;
75098;SDS011;63685;47.374;8.498;2022-10-26T11:58:07;7.07;;;3.60;;
75098;SDS011;63685;47.374;8.498;2022-10-26T12:00:38;7.32;;;3.90;;
75098;SDS011;63685;47.374;8.498;2022-10-26T12:03:33;5.93;;;3.53;;
75098;SDS011;63685;47.374;8.498;2022-10-26T12:06:02;6.97;;;3.40;;
75098;SDS011;63685;47.374;8.498;2022-10-26T12:08:37;7.30;;;3.25;;
75098;SDS011;63685;47.374;8.498;2022-10-26T12:13:53;6.57;;;3.33;;
75098;SDS011;63685;47.374;8.498;2022-10-26T12:21:43;6.55;;;3.13;;
75098;SDS011;63685;47.374;8.498;2022-10-26T12:26:51;7.22;;;3.67;;
75098;SDS011;63685;47.374;8.498;2022-10-26T12:31:54;6.30;;;3.10;;
75098;SDS011;63685;47.374;8.498;2022-10-26T12:34:24;5.25;;;3.20;;
75098;SDS011;63685;47.374;8.498;2022-10-26T12:37:28;6.28;;;3.13;;
75098;SDS011;63685;47.374;8.498;2022-10-26T12:39:58;4.57;;;2.60;;
75098;SDS011;63685;47.374;8.498;2022-10-26T12:45:40;5.95;;;2.90;;
75098;SDS011;63685;47.374;8.498;2022-10-26T12:50:48;5.28;;;2.80;;
75098;SDS011;63685;47.374;8.498;2022-10-26T12:53:15;5.90;;;3.03;;
75098;SDS011;63685;47.374;8.498;2022-10-26T12:55:49;5.78;;;2.88;;
75098;SDS011;63685;47.374;8.498;2022-10-26T12:59:12;5.07;;;2.90;;
75098;SDS011;63685;47.374;8.498;2022-10-26T13:01:44;4.60;;;3.08;;
75098;SDS011;63685;47.374;8.498;2022-10-26T13:07:23;4.85;;;2.60;;
75098;SDS011;63685;47.374;8.498;2022-10-26T13:12:25;4.78;;;2.33;;
75098;SDS011;63685;47.374;8.498;2022-10-26T13:15:03;4.72;;;2.53;;
75098;SDS011;63685;47.374;8.498;2022-10-26T13:17:39;5.10;;;3.15;;
75098;SDS011;63685;47.374;8.498;2022-10-26T13:20:04;6.63;;;2.88;;
75098;SDS011;63685;47.374;8.498;2022-10-26T13:22:31;4.13;;;2.45;;
75098;SDS011;63685;47.374;8.498;2022-10-26T13:24:57;3.83;;;2.22;;
75098;SDS011;63685;47.374;8.498;2022-10-26T13:32:33;5.97;;;2.50;;
75098;SDS011;63685;47.374;8.498;2022-10-26T13:35:12;4.80;;;2.47;;
75098;SDS011;63685;47.374;8.498;2022-10-26T13:37:43;5.65;;;2.58;;
75098;SDS011;63685;47.374;8.498;2022-10-26T13:40:12;6.47;;;2.85;;
75098;SDS011;63685;47.374;8.498;2022-10-26T13:42:46;5.82;;;2.70;;
75098;SDS011;63685;47.374;8.498;2022-10-26T13:45:15;4.47;;;2.58;;
75098;SDS011;63685;47.374;8.498;2022-10-26T13:50:36;5.72;;;2.65;;
75098;SDS011;63685;47.374;8.498;2022-10-26T13:53:15;3.97;;;2.38;;
75098;SDS011;63685;47.374;8.498;2022-10-26T13:56:53;4.88;;;2.70;;
75098;SDS011;63685;47.374;8.498;2022-10-26T13:58:49;4.43;;;2.28;;
75098;SDS011;63685;47.374;8.498;2022-10-26T14:01:23;5.07;;;2.30;;
75098;SDS011;63685;47.374;8.498;2022-10-26T14:03:50;4.13;;;2.25;;
75098;SDS011;63685;47.374;8.498;2022-10-26T14:06:25;4.03;;;2.15;;
75098;SDS011;63685;47.374;8.498;2022-10-26T14:08:52;3.83;;;2.13;;
75098;SDS011;63685;47.374;8.498;2022-10-26T14:11:21;4.30;;;2.67;;
75098;SDS011;63685;47.374;8.498;2022-10-26T14:13:56;3.60;;;2.35;;
75098;SDS011;63685;47.374;8.498;2022-10-26T14:16:21;4.28;;;2.28;;
75098;SDS011;63685;47.374;8.498;2022-10-26T14:18:51;4.88;;;2.40;;
75098;SDS011;63685;47.374;8.498;2022-10-26T14:21:18;4.38;;;2.40;;
75098;SDS011;63685;47.374;8.498;2022-10-26T14:23:47;3.63;;;2.10;;
75098;SDS011;63685;47.374;8.498;2022-10-26T14:29:02;3.50;;;2.10;;
75098;SDS011;63685;47.374;8.498;2022-10-26T14:31:32;4.53;;;2.67;;
75098;SDS011;63685;47.374;8.498;2022-10-26T14:34:00;2.88;;;2.00;;
75098;SDS011;63685;47.374;8.498;2022-10-26T14:36:32;4.18;;;2.20;;
75098;SDS011;63685;47.374;8.498;2022-10-26T14:39:03;3.40;;;1.98;;
75098;SDS011;63685;47.374;8.498;2022-10-26T14:41:40;3.45;;;1.95;;
75098;SDS011;63685;47.374;8.498;2022-10-26T14:44:12;4.47;;;2.30;;
75098;SDS011;63685;47.374;8.498;2022-10-26T14:46:42;3.47;;;1.92;;
75098;SDS011;63685;47.374;8.498;2022-10-26T14:49:12;4.60;;;2.70;;
75098;SDS011;63685;47.374;8.498;2022-10-26T14:51:45;3.83;;;2.13;;
75098;SDS011;63685;47.374;8.498;2022-10-26T14:54:21;3.67;;;2.22;;
75098;SDS011;63685;47.374;8.498;2022-10-26T14:56:48;4.53;;;2.22;;
75098;SDS011;63685;47.374;8.498;2022-10-26T14:59:20;3.17;;;2.17;;
75098;SDS011;63685;47.374;8.498;2022-10-26T15:04:38;4.20;;;1.98;;
75098;SDS011;63685;47.374;8.498;2022-10-26T15:07:07;3.63;;;2.15;;
75098;SDS011;63685;47.374;8.498;2022-10-26T15:09:40;4.40;;;2.17;;
75098;SDS011;63685;47.374;8.498;2022-10-26T15:17:48;4.15;;;2.35;;
75098;SDS011;63685;47.374;8.498;2022-10-26T15:20:20;4.03;;;2.10;;
75098;SDS011;63685;47.374;8.498;2022-10-26T15:23:05;3.70;;;1.95;;
75098;SDS011;63685;47.374;8.498;2022-10-26T15:25:48;3.53;;;1.90;;
75098;SDS011;63685;47.374;8.498;2022-10-26T15:28:29;3.75;;;2.10;;
75098;SDS011;63685;47.374;8.498;2022-10-26T15:33:39;3.30;;;2.10;;
75098;SDS011;63685;47.374;8.498;2022-10-26T15:38:32;3.80;;;1.80;;
75098;SDS011;63685;47.374;8.498;2022-10-26T15:40:58;4.47;;;2.20;;
75098;SDS011;63685;47.374;8.498;2022-10-26T15:43:24;2.97;;;2.00;;
75098;SDS011;63685;47.374;8.498;2022-10-26T15:45:49;3.42;;;2.00;;
75098;SDS011;63685;47.374;8.498;2022-10-26T15:48:24;4.32;;;2.00;;
75098;SDS011;63685;47.374;8.498;2022-10-26T15:50:53;3.30;;;1.92;;
75098;SDS011;63685;47.374;8.498;2022-10-26T15:53:23;4.57;;;2.05;;
75098;SDS011;63685;47.374;8.498;2022-10-26T15:55:53;3.47;;;2.00;;
75098;SDS011;63685;47.374;8.498;2022-10-26T15:58:21;4.38;;;2.08;;
75098;SDS011;63685;47.374;8.498;2022-10-26T16:00:47;3.60;;;1.85;;
75098;SDS011;63685;47.374;8.498;2022-10-26T16:03:14;3.50;;;2.08;;
75098;SDS011;63685;47.374;8.498;2022-10-26T16:05:42;3.70;;;1.98;;
75098;SDS011;63685;47.374;8.498;2022-10-26T16:08:12;3.38;;;1.92;;
75098;SDS011;63685;47.374;8.498;2022-10-26T16:10:40;3.05;;;1.90;;
75098;SDS011;63685;47.374;8.498;2022-10-26T16:13:08;3.13;;;2.00;;
75098;SDS011;63685;47.374;8.498;2022-10-26T16:15:37;3.65;;;1.98;;
75098;SDS011;63685;47.374;8.498;2022-10-26T16:18:03;3.15;;;1.80;;
75098;SDS011;63685;47.374;8.498;2022-10-26T16:20:28;3.67;;;1.88;;
75098;SDS011;63685;47.374;8.498;2022-10-26T16:22:54;3.35;;;2.00;;
75098;SDS011;63685;47.374;8.498;2022-10-26T16:25:21;2.97;;;1.90;;
75098;SDS011;63685;47.374;8.498;2022-10-26T16:27:48;3.83;;;1.85;;
75098;SDS011;63685;47.374;8.498;2022-10-26T16:30:15;3.15;;;2.05;;
75098;SDS011;63685;47.374;8.498;2022-10-26T16:32:41;3.65;;;2.13;;
75098;SDS011;63685;47.374;8.498;2022-10-26T16:35:07;3.13;;;1.83;;
75098;SDS011;63685;47.374;8.498;2022-10-26T16:37:33;3.83;;;1.80;;
75098;SDS011;63685;47.374;8.498;2022-10-26T16:39:59;3.13;;;1.80;;
75098;SDS011;63685;47.374;8.498;2022-10-26T16:42:25;3.20;;;1.80;;
75098;SDS011;63685;47.374;8.498;2022-10-26T16:44:52;3.15;;;1.90;;
75098;SDS011;63685;47.374;8.498;2022-10-26T16:47:18;4.43;;;2.25;;
75098;SDS011;63685;47.374;8.498;2022-10-26T16:49:43;5.22;;;2.80;;
75098;SDS011;63685;47.374;8.498;2022-10-26T16:52:09;8.82;;;3.83;;
75098;SDS011;63685;47.374;8.498;2022-10-26T16:54:35;5.88;;;3.80;;
75098;SDS011;63685;47.374;8.498;2022-10-26T16:57:01;8.55;;;4.28;;
75098;SDS011;63685;47.374;8.498;2022-10-26T16:59:26;8.88;;;3.85;;
75098;SDS011;63685;47.374;8.498;2022-10-26T17:01:52;7.22;;;4.53;;
75098;SDS011;63685;47.374;8.498;2022-10-26T17:04:18;8.55;;;5.13;;
75098;SDS011;63685;47.374;8.498;2022-10-26T17:06:43;9.55;;;4.80;;
75098;SDS011;63685;47.374;8.498;2022-10-26T17:09:09;9.35;;;5.00;;
75098;SDS011;63685;47.374;8.498;2022-10-26T17:11:35;9.95;;;4.80;;
75098;SDS011;63685;47.374;8.498;2022-10-26T17:14:00;9.35;;;5.13;;
75098;SDS011;63685;47.374;8.498;2022-10-26T17:16:26;9.00;;;4.85;;
75098;SDS011;63685;47.374;8.498;2022-10-26T17:18:52;7.32;;;4.00;;
75098;SDS011;63685;47.374;8.498;2022-10-26T17:21:19;8.52;;;4.25;;